createdAt,value
2023-09-17T00:00:30.123Z,101476.53
2023-09-17T00:01:01.654Z,101476.53
2023-09-17T00:01:33.371Z,101477.72
2023-09-17T00:02:05.230Z,101478.53
2023-09-17T00:02:37.484Z,101482.47
2023-09-17T00:03:09.222Z,101483.66
2023-09-17T00:03:43.566Z,101480.13
2023-09-17T00:04:15.397Z,101477.75
2023-09-17T00:04:47.032Z,101477.34
2023-09-17T00:05:18.554Z,101476.16
2023-09-17T00:05:50.229Z,101480.09
2023-09-17T00:06:21.931Z,101472.22
2023-09-17T00:06:53.459Z,101473.41
2023-09-17T00:07:25.046Z,101476.97
2023-09-17T00:07:56.610Z,101478.56
2023-09-17T00:08:28.166Z,101477.75
2023-09-17T00:08:59.716Z,101477.38
2023-09-17T00:09:31.370Z,101474.19
2023-09-17T00:10:02.980Z,101477.75
2023-09-17T00:10:34.870Z,101477.75
2023-09-17T00:11:07.170Z,101478.53
2023-09-17T00:11:38.822Z,101476.16
2023-09-17T00:12:10.410Z,101475.38
2023-09-17T00:12:42.218Z,101484.41
2023-09-17T00:13:14.126Z,101480.88
2023-09-17T00:13:45.810Z,101479.31
2023-09-17T00:14:17.531Z,101478.13
2023-09-17T00:14:50.043Z,101486.38
2023-09-17T00:15:28.210Z,101473.38
2023-09-17T00:16:00.718Z,101480.09
2023-09-17T00:16:32.788Z,101478.13
2023-09-17T00:17:05.934Z,101480.88
2023-09-17T00:17:38.470Z,101474.97
2023-09-17T00:18:10.405Z,101476.16
2023-09-17T00:18:42.033Z,101476.16
2023-09-17T00:19:14.261Z,101476.56
2023-09-17T00:19:46.060Z,101478.16
2023-09-17T00:20:17.638Z,101474.63
2023-09-17T00:20:49.148Z,101479.34
2023-09-17T00:21:21.038Z,101474.66
2023-09-17T00:21:52.880Z,101475.06
2023-09-17T00:22:25.526Z,101473.50
2023-09-17T00:22:57.106Z,101468.81
2023-09-17T00:23:28.658Z,101469.59
2023-09-17T00:24:00.233Z,101475.13
2023-09-17T00:24:31.730Z,101475.88
2023-09-17T00:25:03.244Z,101474.69
2023-09-17T00:25:34.871Z,101477.03
2023-09-17T00:26:06.368Z,101474.69
2023-09-17T00:26:37.883Z,101467.97
2023-09-17T00:27:09.473Z,101467.97
2023-09-17T00:27:41.049Z,101469.94
2023-09-17T00:28:12.656Z,101466.84
2023-09-17T00:28:44.365Z,101475.13
2023-09-17T00:29:15.901Z,101470.78
2023-09-17T00:29:47.422Z,101475.53
2023-09-17T00:30:18.904Z,101465.28
2023-09-17T00:30:50.453Z,101467.59
2023-09-17T00:31:22.063Z,101465.63
2023-09-17T00:31:53.636Z,101464.44
2023-09-17T00:32:25.250Z,101465.22
2023-09-17T00:32:56.821Z,101459.31
2023-09-17T00:33:28.365Z,101462.88
2023-09-17T00:33:59.857Z,101468.38
2023-09-17T00:34:31.507Z,101459.78
2023-09-17T00:35:04.459Z,101457.41
2023-09-17T00:35:36.021Z,101461.34
2023-09-17T00:36:07.509Z,101458.59
2023-09-17T00:36:39.061Z,101457.81
2023-09-17T00:37:12.688Z,101458.22
2023-09-17T00:37:45.707Z,101453.13
2023-09-17T00:38:17.261Z,101451.94
2023-09-17T00:38:48.859Z,101457.47
2023-09-17T00:39:20.363Z,101452.34
2023-09-17T00:39:51.903Z,101454.72
2023-09-17T00:40:28.818Z,101457.50
2023-09-17T00:41:01.317Z,101449.63
2023-09-17T00:41:32.857Z,101451.22
2023-09-17T00:42:04.504Z,101450.44
2023-09-17T00:42:36.036Z,101451.22
2023-09-17T00:43:07.932Z,101452.00
2023-09-17T00:43:39.582Z,101450.03
2023-09-17T00:44:11.304Z,101447.66
2023-09-17T00:44:43.316Z,101445.72
2023-09-17T00:45:14.876Z,101450.44
2023-09-17T00:45:46.760Z,101450.09
2023-09-17T00:46:18.530Z,101449.66
2023-09-17T00:46:51.575Z,101442.94
2023-09-17T00:47:23.437Z,101442.16
2023-09-17T00:47:56.367Z,101452.41
2023-09-17T00:48:28.422Z,101443.78
2023-09-17T00:49:01.356Z,101452.06
2023-09-17T00:49:34.041Z,101445.75
2023-09-17T00:50:06.369Z,101444.19
2023-09-17T00:50:40.435Z,101439.88
2023-09-17T00:51:12.456Z,101436.34
2023-09-17T00:51:44.616Z,101442.25
2023-09-17T00:52:19.540Z,101441.84
2023-09-17T00:52:51.571Z,101439.47
2023-09-17T00:53:23.311Z,101443.78
2023-09-17T00:53:57.615Z,101437.09
2023-09-17T00:54:31.036Z,101436.66
2023-09-17T00:55:02.644Z,101440.97
2023-09-17T00:55:34.377Z,101439.84
2023-09-17T00:56:05.951Z,101442.22
2023-09-17T00:56:38.506Z,101435.94
2023-09-17T00:57:11.217Z,101440.66
2023-09-17T00:57:46.704Z,101435.53
2023-09-17T00:58:18.418Z,101435.16
2023-09-17T00:58:51.769Z,101431.19
2023-09-17T00:59:24.789Z,101435.94
2023-09-17T00:59:56.332Z,101438.28
2023-09-17T01:00:28.590Z,101431.19
2023-09-17T01:01:01.063Z,101434.75
2023-09-17T01:01:33.353Z,101433.56
2023-09-17T01:02:06.183Z,101435.88
2023-09-17T01:02:40.563Z,101431.16
2023-09-17T01:03:13.872Z,101429.97
2023-09-17T01:03:46.345Z,101434.69
2023-09-17T01:04:19.183Z,101427.63
2023-09-17T01:04:53.607Z,101434.69
2023-09-17T01:05:26.901Z,101431.53
2023-09-17T01:06:02.077Z,101430.75
2023-09-17T01:06:33.735Z,101426.06
2023-09-17T01:07:05.843Z,101428.03
2023-09-17T01:07:37.489Z,101426.88
2023-09-17T01:08:10.630Z,101422.56
2023-09-17T01:08:42.652Z,101424.53
2023-09-17T01:09:14.786Z,101428.47
2023-09-17T01:09:46.652Z,101424.94
2023-09-17T01:10:18.306Z,101425.72
2023-09-17T01:10:50.822Z,101418.25
2023-09-17T01:11:22.396Z,101418.25
2023-09-17T01:11:54.002Z,101418.25
2023-09-17T01:12:27.671Z,101413.50
2023-09-17T01:13:00.296Z,101408.78
2023-09-17T01:13:32.522Z,101412.31
2023-09-17T01:14:16.503Z,101407.59
2023-09-17T01:14:48.235Z,101411.91
2023-09-17T01:15:20.299Z,101409.16
2023-09-17T01:15:55.177Z,101411.91
2023-09-17T01:16:27.831Z,101416.25
2023-09-17T01:17:02.195Z,101409.94
2023-09-17T01:17:35.725Z,101415.47
2023-09-17T01:18:10.551Z,101406.81
2023-09-17T01:18:43.645Z,101407.59
2023-09-17T01:19:24.607Z,101402.88
2023-09-17T01:19:57.061Z,101407.22
2023-09-17T01:20:42.275Z,101404.84
2023-09-17T01:21:32.848Z,101400.53
2023-09-17T01:22:08.319Z,101405.66
2023-09-17T01:22:48.282Z,101399.38
2023-09-17T01:23:43.307Z,101406.09
2023-09-17T01:24:36.780Z,101399.00
2023-09-17T01:25:19.344Z,101403.34
2023-09-17T01:25:58.152Z,101398.66
2023-09-17T01:26:31.289Z,101399.47
2023-09-17T01:27:04.869Z,101395.16
2023-09-17T01:27:39.865Z,101395.16
2023-09-17T01:28:13.522Z,101386.53
2023-09-17T01:28:45.185Z,101395.97
2023-09-17T01:29:27.946Z,101397.94
2023-09-17T01:29:59.607Z,101393.22
2023-09-17T01:30:31.114Z,101394.41
2023-09-17T01:31:02.643Z,101403.06
2023-09-17T01:31:35.547Z,101396.38
2023-09-17T01:32:08.090Z,101390.88
2023-09-17T01:32:40.431Z,101393.63
2023-09-17T01:33:12.355Z,101397.94
2023-09-17T01:33:43.935Z,101393.63
2023-09-17T01:34:16.165Z,101397.13
2023-09-17T01:34:53.961Z,101395.56
2023-09-17T01:35:26.187Z,101398.69
2023-09-17T01:36:17.319Z,101400.22
2023-09-17T01:36:50.365Z,101399.44
2023-09-17T01:37:28.707Z,101399.47
2023-09-17T01:38:04.598Z,101402.25
2023-09-17T01:38:41.533Z,101399.88
2023-09-17T01:39:23.502Z,101398.69
2023-09-17T01:40:04.672Z,101397.50
2023-09-17T01:40:36.391Z,101402.59
2023-09-17T01:41:09.325Z,101404.16
2023-09-17T01:41:42.374Z,101395.09
2023-09-17T01:42:16.630Z,101401.41
2023-09-17T01:42:49.841Z,101403.38
2023-09-17T01:43:22.224Z,101398.66
2023-09-17T01:43:54.566Z,101408.53
2023-09-17T01:44:30.250Z,101398.31
2023-09-17T01:45:04.115Z,101402.63
2023-09-17T01:45:36.285Z,101392.44
2023-09-17T01:46:09.776Z,101394.41
2023-09-17T01:46:43.176Z,101396.38
2023-09-17T01:47:16.531Z,101395.19
2023-09-17T01:47:50.092Z,101395.19
2023-09-17T01:48:23.289Z,101393.22
2023-09-17T01:48:56.319Z,101394.38
2023-09-17T01:49:29.681Z,101399.47
2023-09-17T01:50:03.078Z,101396.72
2023-09-17T01:50:35.828Z,101388.81
2023-09-17T01:51:08.837Z,101389.59
2023-09-17T01:51:41.243Z,101386.84
2023-09-17T01:52:13.716Z,101389.25
2023-09-17T01:52:45.757Z,101385.72
2023-09-17T01:53:17.741Z,101387.69
2023-09-17T01:53:49.557Z,101380.22
2023-09-17T01:54:21.538Z,101379.06
2023-09-17T01:54:54.030Z,101376.31
2023-09-17T01:55:25.617Z,101378.28
2023-09-17T01:55:57.829Z,101380.63
2023-09-17T01:56:29.397Z,101373.56
2023-09-17T01:57:00.916Z,101376.31
2023-09-17T01:57:35.010Z,101375.91
2023-09-17T01:58:06.508Z,101377.09
2023-09-17T01:58:38.035Z,101373.19
2023-09-17T01:59:09.585Z,101373.19
2023-09-17T01:59:41.093Z,101368.03
2023-09-17T02:00:17.988Z,101377.50
2023-09-17T02:00:50.516Z,101377.91
2023-09-17T02:01:23.008Z,101368.84
2023-09-17T02:01:54.791Z,101373.56
2023-09-17T02:02:28.220Z,101373.94
2023-09-17T02:03:03.720Z,101364.53
2023-09-17T02:03:35.432Z,101370.81
2023-09-17T02:04:07.108Z,101370.81
2023-09-17T02:04:38.694Z,101363.34
2023-09-17T02:05:10.362Z,101362.16
2023-09-17T02:05:41.809Z,101371.97
2023-09-17T02:06:13.289Z,101367.66
2023-09-17T02:06:46.726Z,101368.06
2023-09-17T02:07:18.312Z,101371.97
2023-09-17T02:07:49.843Z,101377.50
2023-09-17T02:08:21.361Z,101381.03
2023-09-17T02:08:52.850Z,101376.72
2023-09-17T02:09:24.365Z,101373.97
2023-09-17T02:09:56.122Z,101379.84
2023-09-17T02:10:27.738Z,101385.34
2023-09-17T02:10:59.348Z,101376.31
2023-09-17T02:11:30.854Z,101379.84
2023-09-17T02:12:02.378Z,101380.63
2023-09-17T02:12:33.939Z,101385.75
2023-09-17T02:13:05.393Z,101385.34
2023-09-17T02:13:36.926Z,101388.13
2023-09-17T02:14:08.454Z,101379.84
2023-09-17T02:14:40.224Z,101387.31
2023-09-17T02:15:11.794Z,101386.13
2023-09-17T02:15:43.452Z,101386.13
2023-09-17T02:16:15.226Z,101386.53
2023-09-17T02:16:46.910Z,101386.53
2023-09-17T02:17:19.705Z,101385.34
2023-09-17T02:17:52.246Z,101386.13
2023-09-17T02:18:23.740Z,101387.72
2023-09-17T02:18:58.100Z,101392.44
2023-09-17T02:19:29.865Z,101385.75
2023-09-17T02:20:01.348Z,101393.19
2023-09-17T02:20:38.180Z,101386.13
2023-09-17T02:21:09.730Z,101386.94
2023-09-17T02:21:41.605Z,101385.34
2023-09-17T02:22:13.142Z,101390.88
2023-09-17T02:22:44.673Z,101383.78
2023-09-17T02:23:16.137Z,101388.13
2023-09-17T02:23:49.062Z,101388.13
2023-09-17T02:24:21.174Z,101386.53
2023-09-17T02:24:52.656Z,101381.03
2023-09-17T02:25:24.161Z,101381.81
2023-09-17T02:25:55.736Z,101378.28
2023-09-17T02:26:27.644Z,101382.22
2023-09-17T02:26:59.112Z,101380.66
2023-09-17T02:27:30.572Z,101379.47
2023-09-17T02:28:03.181Z,101384.56
2023-09-17T02:28:34.674Z,101390.47
2023-09-17T02:29:07.472Z,101379.47
2023-09-17T02:29:38.970Z,101383.41
2023-09-17T02:30:10.662Z,101381.03
2023-09-17T02:30:42.209Z,101382.59
2023-09-17T02:31:14.777Z,101384.56
2023-09-17T02:31:46.444Z,101372.00
2023-09-17T02:32:18.129Z,101373.97
2023-09-17T02:32:49.706Z,101373.56
2023-09-17T02:33:21.212Z,101374.34
2023-09-17T02:33:52.877Z,101374.75
2023-09-17T02:34:24.496Z,101370.41
2023-09-17T02:34:55.971Z,101371.59
2023-09-17T02:35:27.495Z,101378.69
2023-09-17T02:35:59.120Z,101373.94
2023-09-17T02:36:30.713Z,101374.75
2023-09-17T02:37:02.247Z,101370.00
2023-09-17T02:37:33.980Z,101378.28
2023-09-17T02:38:05.864Z,101374.38
2023-09-17T02:38:37.424Z,101371.97
2023-09-17T02:39:09.703Z,101376.72
2023-09-17T02:39:41.287Z,101374.34
2023-09-17T02:40:12.797Z,101366.50
2023-09-17T02:40:44.675Z,101365.72
2023-09-17T02:41:16.248Z,101378.28
2023-09-17T02:41:47.805Z,101368.47
2023-09-17T02:42:19.314Z,101372.00
2023-09-17T02:42:50.855Z,101373.97
2023-09-17T02:43:22.345Z,101372.41
2023-09-17T02:43:54.128Z,101368.88
2023-09-17T02:44:26.719Z,101369.31
2023-09-17T02:44:58.198Z,101370.06
2023-09-17T02:45:29.777Z,101373.59
2023-09-17T02:46:01.357Z,101372.41
2023-09-17T02:46:33.717Z,101367.28
2023-09-17T02:47:05.404Z,101375.16
2023-09-17T02:47:37.164Z,101376.31
2023-09-17T02:48:08.758Z,101375.16
2023-09-17T02:48:40.255Z,101373.56
2023-09-17T02:49:11.709Z,101377.50
2023-09-17T02:49:43.315Z,101381.44
2023-09-17T02:50:14.896Z,101375.53
2023-09-17T02:50:46.697Z,101377.91
2023-09-17T02:51:18.188Z,101381.81
2023-09-17T02:51:52.811Z,101375.94
2023-09-17T02:52:24.313Z,101377.09
2023-09-17T02:52:55.778Z,101374.75
2023-09-17T02:53:27.261Z,101375.16
2023-09-17T02:53:58.783Z,101382.63
2023-09-17T02:54:30.365Z,101381.44
2023-09-17T02:55:01.924Z,101387.75
2023-09-17T02:55:33.456Z,101383.81
2023-09-17T02:56:05.617Z,101385.78
2023-09-17T02:56:37.265Z,101395.19
2023-09-17T02:57:08.730Z,101398.34
2023-09-17T02:57:40.282Z,101401.50
2023-09-17T02:58:11.784Z,101406.19
2023-09-17T02:58:43.445Z,101405.41
2023-09-17T02:59:15.036Z,101413.69
2023-09-17T02:59:47.295Z,101407.38
2023-09-17T03:00:18.818Z,101413.69
2023-09-17T03:00:50.789Z,101414.47
2023-09-17T03:01:24.479Z,101406.19
2023-09-17T03:01:56.379Z,101408.16
2023-09-17T03:02:28.053Z,101406.97
2023-09-17T03:02:59.795Z,101392.44
2023-09-17T03:03:31.417Z,101402.63
2023-09-17T03:04:03.906Z,101398.69
2023-09-17T03:04:37.468Z,101392.41
2023-09-17T03:05:12.028Z,101395.56
2023-09-17T03:05:48.208Z,101396.72
2023-09-17T03:06:19.838Z,101386.13
2023-09-17T03:06:51.317Z,101394.38
2023-09-17T03:07:22.894Z,101388.47
2023-09-17T03:07:54.859Z,101387.69
2023-09-17T03:08:27.482Z,101388.88
2023-09-17T03:08:58.949Z,101388.50
2023-09-17T03:09:30.607Z,101379.06
2023-09-17T03:10:08.446Z,101384.56
2023-09-17T03:10:43.804Z,101385.75
2023-09-17T03:11:16.783Z,101386.13
2023-09-17T03:11:48.246Z,101391.25
2023-09-17T03:12:19.732Z,101386.13
2023-09-17T03:12:51.227Z,101383.38
2023-09-17T03:13:23.403Z,101387.72
2023-09-17T03:13:56.914Z,101386.13
2023-09-17T03:14:28.434Z,101379.84
2023-09-17T03:15:00.253Z,101377.88
2023-09-17T03:15:31.808Z,101373.56
2023-09-17T03:16:03.285Z,101377.50
2023-09-17T03:16:35.371Z,101370.81
2023-09-17T03:17:07.117Z,101363.72
2023-09-17T03:17:39.486Z,101362.94
2023-09-17T03:18:11.722Z,101361.75
2023-09-17T03:18:44.492Z,101366.88
2023-09-17T03:19:16.053Z,101362.94
2023-09-17T03:19:47.611Z,101369.25
2023-09-17T03:20:19.544Z,101367.28
2023-09-17T03:20:51.101Z,101367.66
2023-09-17T03:21:22.779Z,101359.41
2023-09-17T03:21:54.344Z,101363.72
2023-09-17T03:22:25.865Z,101365.28
2023-09-17T03:22:58.529Z,101368.03
2023-09-17T03:23:29.978Z,101365.28
2023-09-17T03:24:01.439Z,101362.53
2023-09-17T03:24:32.891Z,101360.59
2023-09-17T03:25:07.041Z,101364.13
2023-09-17T03:25:38.656Z,101364.91
2023-09-17T03:26:10.566Z,101358.63
2023-09-17T03:26:42.520Z,101363.72
2023-09-17T03:27:14.102Z,101363.34
2023-09-17T03:27:46.586Z,101367.28
2023-09-17T03:28:18.084Z,101365.72
2023-09-17T03:28:49.758Z,101361.78
2023-09-17T03:29:21.402Z,101358.28
2023-09-17T03:29:52.934Z,101361.44
2023-09-17T03:30:25.930Z,101361.06
2023-09-17T03:30:57.637Z,101358.72
2023-09-17T03:31:29.288Z,101367.38
2023-09-17T03:32:00.971Z,101363.84
2023-09-17T03:32:32.903Z,101366.59
2023-09-17T03:33:06.988Z,101363.84
2023-09-17T03:33:38.664Z,101367.38
2023-09-17T03:34:10.188Z,101365.41
2023-09-17T03:34:41.770Z,101368.16
2023-09-17T03:35:13.587Z,101365.41
2023-09-17T03:35:45.170Z,101366.19
2023-09-17T03:36:16.756Z,101363.84
2023-09-17T03:36:48.277Z,101369.75
2023-09-17T03:37:19.775Z,101367.00
2023-09-17T03:37:51.785Z,101361.50
2023-09-17T03:38:23.274Z,101362.28
2023-09-17T03:38:54.863Z,101368.19
2023-09-17T03:39:26.286Z,101365.84
2023-09-17T03:40:09.200Z,101357.56
2023-09-17T03:40:41.135Z,101357.19
2023-09-17T03:41:13.192Z,101364.69
2023-09-17T03:41:44.723Z,101359.19
2023-09-17T03:42:16.198Z,101360.38
2023-09-17T03:42:48.303Z,101356.84
2023-09-17T03:43:20.192Z,101362.75
2023-09-17T03:43:51.948Z,101356.47
2023-09-17T03:44:23.555Z,101360.78
2023-09-17T03:44:55.008Z,101361.19
2023-09-17T03:45:26.942Z,101352.94
2023-09-17T03:45:58.542Z,101357.25
2023-09-17T03:46:34.021Z,101352.94
2023-09-17T03:47:06.837Z,101352.19
2023-09-17T03:47:39.480Z,101360.44
2023-09-17T03:48:11.042Z,101358.09
2023-09-17T03:48:42.733Z,101354.56
2023-09-17T03:49:14.297Z,101355.34
2023-09-17T03:49:46.141Z,101355.75
2023-09-17T03:50:20.002Z,101348.69
2023-09-17T03:50:52.508Z,101358.13
2023-09-17T03:51:24.011Z,101354.59
2023-09-17T03:51:55.690Z,101356.94
2023-09-17T03:52:28.803Z,101354.97
2023-09-17T03:53:03.415Z,101349.47
2023-09-17T03:53:35.541Z,101351.03
2023-09-17T03:54:07.190Z,101355.75
2023-09-17T03:54:38.774Z,101353.47
2023-09-17T03:55:10.575Z,101351.50
2023-09-17T03:55:42.479Z,101355.47
2023-09-17T03:56:14.133Z,101348.78
2023-09-17T03:56:45.655Z,101355.84
2023-09-17T03:57:17.581Z,101358.22
2023-09-17T03:57:49.293Z,101355.09
2023-09-17T03:58:22.897Z,101359.41
2023-09-17T03:58:54.782Z,101352.34
2023-09-17T03:59:26.320Z,101350.38
2023-09-17T03:59:57.864Z,101355.88
2023-09-17T04:00:29.397Z,101351.22
2023-09-17T04:01:00.906Z,101356.72
2023-09-17T04:01:33.566Z,101352.78
2023-09-17T04:02:05.993Z,101353.13
2023-09-17T04:02:38.576Z,101353.53
2023-09-17T04:03:10.366Z,101357.84
2023-09-17T04:03:42.154Z,101351.16
2023-09-17T04:04:13.661Z,101348.84
2023-09-17T04:04:45.249Z,101349.25
2023-09-17T04:05:17.890Z,101350.06
2023-09-17T04:05:50.869Z,101348.09
2023-09-17T04:06:22.324Z,101345.34
2023-09-17T04:06:53.835Z,101348.50
2023-09-17T04:07:25.342Z,101345.75
2023-09-17T04:07:56.955Z,101355.56
2023-09-17T04:08:28.420Z,101342.59
2023-09-17T04:09:00.370Z,101351.66
2023-09-17T04:09:31.905Z,101348.91
2023-09-17T04:10:07.129Z,101345.41
2023-09-17T04:10:39.709Z,101342.69
2023-09-17T04:11:16.764Z,101344.66
2023-09-17T04:11:48.413Z,101343.88
2023-09-17T04:12:19.927Z,101350.16
2023-09-17T04:12:51.457Z,101347.41
2023-09-17T04:13:23.145Z,101347.78
2023-09-17T04:13:55.792Z,101350.53
2023-09-17T04:14:30.028Z,101348.19
2023-09-17T04:15:02.079Z,101345.81
2023-09-17T04:15:33.663Z,101350.53
2023-09-17T04:16:05.225Z,101342.28
2023-09-17T04:16:36.799Z,101344.25
2023-09-17T04:17:08.457Z,101345.03
2023-09-17T04:17:40.626Z,101344.25
2023-09-17T04:18:12.223Z,101347.78
2023-09-17T04:18:43.694Z,101343.47
2023-09-17T04:19:16.730Z,101338.38
2023-09-17T04:19:48.278Z,101342.28
2023-09-17T04:20:20.870Z,101342.31
2023-09-17T04:20:52.678Z,101345.84
2023-09-17T04:21:24.172Z,101339.97
2023-09-17T04:21:55.727Z,101339.97
2023-09-17T04:22:27.255Z,101336.03
2023-09-17T04:22:58.838Z,101337.22
2023-09-17T04:23:30.843Z,101334.09
2023-09-17T04:24:04.450Z,101330.97
2023-09-17T04:24:35.923Z,101343.09
2023-09-17T04:25:07.756Z,101336.47
2023-09-17T04:25:39.389Z,101334.91
2023-09-17T04:26:13.419Z,101332.53
2023-09-17T04:26:46.253Z,101330.94
2023-09-17T04:27:17.752Z,101327.81
2023-09-17T04:27:49.913Z,101330.19
2023-09-17T04:28:21.458Z,101332.94
2023-09-17T04:28:53.779Z,101338.81
2023-09-17T04:29:25.356Z,101327.44
2023-09-17T04:29:56.887Z,101328.63
2023-09-17T04:30:28.538Z,101334.13
2023-09-17T04:31:00.118Z,101334.13
2023-09-17T04:31:31.711Z,101331.78
2023-09-17T04:32:03.796Z,101326.66
2023-09-17T04:32:39.626Z,101318.06
2023-09-17T04:33:11.336Z,101326.31
2023-09-17T04:33:42.976Z,101329.44
2023-09-17T04:34:15.242Z,101324.72
2023-09-17T04:34:46.782Z,101323.94
2023-09-17T04:35:19.136Z,101322.38
2023-09-17T04:35:56.675Z,101323.56
2023-09-17T04:36:28.162Z,101321.22
2023-09-17T04:37:00.097Z,101317.66
2023-09-17T04:37:32.610Z,101319.63
2023-09-17T04:38:05.287Z,101320.41
2023-09-17T04:38:36.889Z,101316.50
2023-09-17T04:39:10.964Z,101319.63
2023-09-17T04:39:43.964Z,101316.50
2023-09-17T04:40:15.676Z,101323.97
2023-09-17T04:40:47.141Z,101319.25
2023-09-17T04:41:19.161Z,101320.44
2023-09-17T04:41:51.631Z,101317.69
2023-09-17T04:42:23.155Z,101318.09
2023-09-17T04:42:54.813Z,101316.94
2023-09-17T04:43:27.883Z,101325.19
2023-09-17T04:44:01.795Z,101314.19
2023-09-17T04:44:33.325Z,101325.19
2023-09-17T04:45:08.277Z,101319.31
2023-09-17T04:45:40.851Z,101321.66
2023-09-17T04:46:12.511Z,101318.50
2023-09-17T04:46:44.329Z,101320.09
2023-09-17T04:47:15.963Z,101316.56
2023-09-17T04:47:49.474Z,101316.94
2023-09-17T04:48:21.002Z,101316.94
2023-09-17T04:48:52.774Z,101314.59
2023-09-17T04:49:24.476Z,101313.81
2023-09-17T04:49:55.987Z,101311.84
2023-09-17T04:50:27.721Z,101315.38
2023-09-17T04:50:59.236Z,101315.78
2023-09-17T04:51:30.796Z,101319.31
2023-09-17T04:52:02.262Z,101316.94
2023-09-17T04:52:33.768Z,101311.06
2023-09-17T04:53:05.249Z,101314.59
2023-09-17T04:53:36.733Z,101313.03
2023-09-17T04:54:08.370Z,101316.16
2023-09-17T04:54:40.032Z,101315.00
2023-09-17T04:55:11.509Z,101316.94
2023-09-17T04:55:43.061Z,101314.59
2023-09-17T04:56:14.888Z,101311.06
2023-09-17T04:56:46.406Z,101311.06
2023-09-17T04:57:17.869Z,101315.38
2023-09-17T04:57:49.423Z,101321.66
2023-09-17T04:58:21.009Z,101314.59
2023-09-17T04:58:52.566Z,101309.88
2023-09-17T04:59:24.062Z,101319.69
2023-09-17T04:59:57.440Z,101312.25
2023-09-17T05:00:30.708Z,101313.41
2023-09-17T05:01:02.175Z,101317.72
2023-09-17T05:01:34.298Z,101314.97
2023-09-17T05:02:05.944Z,101315.75
2023-09-17T05:02:39.856Z,101319.25
2023-09-17T05:03:12.844Z,101320.84
2023-09-17T05:03:44.511Z,101322.00
2023-09-17T05:04:16.629Z,101317.34
2023-09-17T05:04:48.170Z,101322.44
2023-09-17T05:05:23.954Z,101322.44
2023-09-17T05:05:57.191Z,101318.50
2023-09-17T05:06:28.809Z,101322.03
2023-09-17T05:07:00.482Z,101322.44
2023-09-17T05:07:31.961Z,101324.00
2023-09-17T05:08:04.450Z,101321.25
2023-09-17T05:08:35.948Z,101327.16
2023-09-17T05:09:07.427Z,101322.44
2023-09-17T05:09:39.045Z,101327.50
2023-09-17T05:10:10.564Z,101326.75
2023-09-17T05:10:42.066Z,101324.00
2023-09-17T05:11:13.657Z,101332.25
2023-09-17T05:11:45.385Z,101331.81
2023-09-17T05:12:16.910Z,101323.97
2023-09-17T05:12:48.567Z,101326.72
2023-09-17T05:13:20.196Z,101331.03
2023-09-17T05:13:52.069Z,101328.69
2023-09-17T05:14:23.838Z,101328.69
2023-09-17T05:14:55.297Z,101326.31
2023-09-17T05:15:26.806Z,101333.38
2023-09-17T05:15:58.686Z,101331.03
2023-09-17T05:16:30.340Z,101331.03
2023-09-17T05:17:02.159Z,101335.75
2023-09-17T05:17:33.805Z,101325.94
2023-09-17T05:18:10.322Z,101324.00
2023-09-17T05:18:41.845Z,101336.94
2023-09-17T05:19:13.336Z,101327.94
2023-09-17T05:19:44.835Z,101329.91
2023-09-17T05:20:16.484Z,101331.06
2023-09-17T05:20:49.488Z,101328.31
2023-09-17T05:21:21.001Z,101324.78
2023-09-17T05:21:52.480Z,101327.94
2023-09-17T05:22:24.024Z,101327.94
2023-09-17T05:22:57.859Z,101326.38
2023-09-17T05:23:29.372Z,101329.13
2023-09-17T05:24:00.901Z,101329.91
2023-09-17T05:24:32.410Z,101325.97
2023-09-17T05:25:05.475Z,101332.66
2023-09-17T05:25:37.032Z,101326.75
2023-09-17T05:26:08.511Z,101326.38
2023-09-17T05:26:40.070Z,101324.81
2023-09-17T05:27:11.551Z,101324.03
2023-09-17T05:27:43.359Z,101325.97
2023-09-17T05:28:15.207Z,101320.50
2023-09-17T05:28:46.687Z,101326.78
2023-09-17T05:29:18.421Z,101322.44
2023-09-17T05:29:49.973Z,101321.69
2023-09-17T05:30:21.420Z,101322.88
2023-09-17T05:30:54.429Z,101322.47
2023-09-17T05:31:26.643Z,101322.47
2023-09-17T05:31:58.224Z,101318.94
2023-09-17T05:32:29.807Z,101320.91
2023-09-17T05:33:01.930Z,101319.75
2023-09-17T05:33:33.425Z,101317.00
2023-09-17T05:34:04.932Z,101323.28
2023-09-17T05:34:36.436Z,101321.69
2023-09-17T05:35:08.969Z,101322.47
2023-09-17T05:35:40.608Z,101328.75
2023-09-17T05:36:12.076Z,101324.84
2023-09-17T05:36:43.559Z,101324.84
2023-09-17T05:37:15.069Z,101319.75
2023-09-17T05:37:46.658Z,101324.06
2023-09-17T05:38:18.149Z,101332.28
2023-09-17T05:38:49.674Z,101325.63
2023-09-17T05:39:21.137Z,101328.75
2023-09-17T05:39:52.646Z,101333.84
2023-09-17T05:40:24.321Z,101330.31
2023-09-17T05:40:56.128Z,101324.44
2023-09-17T05:41:27.594Z,101330.72
2023-09-17T05:41:59.120Z,101334.25
2023-09-17T05:42:32.035Z,101324.84
2023-09-17T05:43:03.588Z,101326.00
2023-09-17T05:43:35.938Z,101324.06
2023-09-17T05:44:07.583Z,101327.59
2023-09-17T05:44:39.087Z,101327.97
2023-09-17T05:45:11.044Z,101331.13
2023-09-17T05:45:42.634Z,101325.63
2023-09-17T05:46:14.198Z,101332.69
2023-09-17T05:46:45.891Z,101327.97
2023-09-17T05:47:17.523Z,101327.97
2023-09-17T05:47:49.978Z,101330.72
2023-09-17T05:48:21.502Z,101331.13
2023-09-17T05:48:52.997Z,101328.75
2023-09-17T05:49:24.530Z,101327.97
2023-09-17T05:49:57.093Z,101326.78
2023-09-17T05:50:28.765Z,101323.28
2023-09-17T05:51:00.692Z,101326.78
2023-09-17T05:51:32.190Z,101328.75
2023-09-17T05:52:03.874Z,101328.75
2023-09-17T05:52:35.495Z,101337.38
2023-09-17T05:53:07.061Z,101334.25
2023-09-17T05:53:38.606Z,101325.22
2023-09-17T05:54:10.239Z,101329.16
2023-09-17T05:54:41.695Z,101332.28
2023-09-17T05:55:13.184Z,101326.41
2023-09-17T05:55:44.776Z,101333.47
2023-09-17T05:56:16.317Z,101326.41
2023-09-17T05:56:47.937Z,101323.66
2023-09-17T05:57:19.415Z,101322.47
2023-09-17T05:57:50.903Z,101320.91
2023-09-17T05:58:22.427Z,101324.44
2023-09-17T05:58:54.387Z,101327.97
2023-09-17T05:59:25.927Z,101322.47
2023-09-17T05:59:58.261Z,101326.00
2023-09-17T06:00:30.265Z,101331.50
2023-09-17T06:01:01.767Z,101329.53
2023-09-17T06:01:34.299Z,101336.22
2023-09-17T06:02:06.286Z,101331.91
2023-09-17T06:02:38.438Z,101328.38
2023-09-17T06:03:10.288Z,101332.69
2023-09-17T06:03:42.593Z,101333.84
2023-09-17T06:04:14.105Z,101330.72
2023-09-17T06:04:48.787Z,101330.72
2023-09-17T06:05:21.254Z,101336.22
2023-09-17T06:05:55.391Z,101338.97
2023-09-17T06:06:26.920Z,101331.13
2023-09-17T06:06:58.397Z,101328.75
2023-09-17T06:07:29.843Z,101337.38
2023-09-17T06:08:01.384Z,101337.38
2023-09-17T06:08:32.972Z,101334.25
2023-09-17T06:09:04.946Z,101337.38
2023-09-17T06:09:36.405Z,101333.84
2023-09-17T06:10:08.257Z,101338.97